Time;durP1;ratioP1;P1;durP2;ratioP2;P2;SDS_P1;SDS_P2;PMS_P1;PMS_P2;Temp;Humidity;BMP_temperature;BMP_pressure;BME280_temperature;BME280_humidity;BME280_pressure;Samples;Min_cycle;Max_cycle;Signal;HPM_P1;HPM_P2
2023/06/16 00:01:23;;;;;;;5.22;2.72;;;;;;;24.29;49.07;98289.78;4939078;29;20387;-79
2023/06/16 00:03:51;;;;;;;3.97;2.53;;;;;;;24.23;49.05;98275.50;4955088;29;20542;-80
2023/06/16 00:06:19;;;;;;;4.78;2.50;;;;;;;24.26;48.88;98275.06;4939317;29;20082;-80
2023/06/16 00:08:46;;;;;;;7.05;3.40;;;;;;;24.27;48.87;98274.00;4955049;29;20031;-80
2023/06/16 00:11:12;;;;;;;9.35;5.30;;;;;;;24.23;48.87;98270.16;4938702;29;20126;-79
2023/06/16 00:13:38;;;;;;;13.38;8.02;;;;;;;24.27;49.09;98266.00;4956263;28;20031;-79
2023/06/16 00:16:03;;;;;;;16.40;11.80;;;;;;;24.26;49.10;98258.22;4955272;29;20062;-79
2023/06/16 00:18:29;;;;;;;15.10;11.50;;;;;;;24.24;49.11;98266.44;4954463;29;20027;-79
2023/06/16 00:20:57;;;;;;;13.90;10.23;;;;;;;24.23;49.05;98263.97;4937795;29;20039;-80
2023/06/16 00:23:23;;;;;;;;;;;;;;;24.24;48.95;98270.97;4954684;29;20042;-80
2023/06/16 00:25:48;;;;;;;13.43;8.88;;;;;;;24.19;49.04;98269.78;4954237;29;19911;-79
2023/06/16 00:28:14;;;;;;;12.63;6.88;;;;;;;24.15;48.63;98260.56;4954417;29;20507;-79
2023/06/16 00:30:40;;;;;;;10.35;6.15;;;;;;;24.16;48.69;98267.53;4938813;29;20042;-80
2023/06/16 00:33:05;;;;;;;7.50;5.60;;;;;;;24.17;48.52;98268.34;4955830;28;20483;-79
2023/06/16 00:35:31;;;;;;;6.53;4.80;;;;;;;24.13;48.62;98261.81;4954168;29;20039;-79
2023/06/16 00:37:57;;;;;;;5.60;4.35;;;;;;;24.16;48.65;98259.53;4954448;29;20502;-79
2023/06/16 00:40:22;;;;;;;7.78;4.45;;;;;;;24.12;48.68;98253.00;4955697;28;20148;-79
2023/06/16 00:42:48;;;;;;;6.97;3.67;;;;;;;24.15;48.78;98249.09;4922440;29;20039;-79
2023/06/16 00:45:13;;;;;;;4.43;3.33;;;;;;;24.14;48.62;98242.13;4954311;29;20111;-77
2023/06/16 00:47:38;;;;;;;6.40;3.88;;;;;;;24.11;48.70;98239.88;4922357;29;20487;-77
2023/06/16 00:50:04;;;;;;;7.45;4.97;;;;;;;24.10;48.93;98239.06;4954323;29;20105;-78
2023/06/16 00:52:31;;;;;;;19.52;13.20;;;;;;;24.09;49.21;98247.28;4938025;29;20043;-77
2023/06/16 00:54:56;;;;;;;21.20;15.15;;;;;;;24.08;49.24;98238.47;4938142;29;20047;-80
2023/06/16 00:57:22;;;;;;;19.67;13.70;;;;;;;24.08;49.18;98242.97;4938916;29;20043;-77
2023/06/16 00:59:47;;;;;;;19.40;13.75;;;;;;;24.05;48.94;98233.56;4937924;29;20035;-77
2023/06/16 01:02:13;;;;;;;17.38;11.75;;;;;;;24.05;49.15;98232.75;4954349;29;20027;-79
2023/06/16 01:04:40;;;;;;;13.50;9.82;;;;;;;24.01;49.15;98227.84;4955374;28;20039;-78
2023/06/16 01:07:09;;;;;;;9.27;7.43;;;;;;;24.02;48.98;98232.16;4938230;29;20085;-78
2023/06/16 01:10:08;;;;;;;12.05;6.68;;;;;;;24.00;48.92;98217.41;4953723;29;20054;-78
2023/06/16 01:12:48;;;;;;;7.93;5.13;;;;;;;23.96;49.08;98214.34;4955323;28;20041;-77
2023/06/16 01:15:18;;;;;;;7.60;5.00;;;;;;;23.93;49.35;98211.31;4954082;29;20067;-78
2023/06/16 01:17:45;;;;;;;9.27;4.90;;;;;;;23.92;49.77;98220.34;4938157;29;20106;-78
2023/06/16 01:20:21;;;;;;;8.07;4.43;;;;;;;23.92;49.93;98233.66;4937715;29;20035;-78
2023/06/16 01:23:02;;;;;;;6.78;3.88;;;;;;;23.87;50.22;98249.50;4955295;28;20031;-78
2023/06/16 01:25:29;;;;;;;7.20;4.30;;;;;;;23.80;50.78;98241.50;4954861;28;20419;-79
2023/06/16 01:27:54;;;;;;;5.25;3.80;;;;;;;23.79;51.10;98248.66;4953526;29;20109;-78
2023/06/16 01:30:22;;;;;;;5.97;3.72;;;;;;;23.81;51.36;98254.59;4937403;29;20474;-78
2023/06/16 01:32:55;;;;;;;5.60;3.50;;;;;;;23.80;51.86;98249.50;4937569;29;20027;-78
2023/06/16 01:35:20;;;;;;;7.28;3.42;;;;;;;23.76;52.25;98245.63;4938795;29;20043;-78
2023/06/16 01:37:46;;;;;;;6.55;3.40;;;;;;;23.75;52.45;98242.16;4937323;29;20042;-79
2023/06/16 01:40:11;;;;;;;8.35;3.15;;;;;;;23.75;52.80;98233.31;4921454;29;20402;-78
2023/06/16 01:42:37;;;;;;;4.82;2.85;;;;;;;23.73;53.10;98230.06;4953409;29;20027;-78
2023/06/16 01:45:03;;;;;;;7.30;3.13;;;;;;;23.69;52.72;98226.19;4953568;29;20442;-79
2023/06/16 01:47:29;;;;;;;4.38;3.17;;;;;;;23.67;52.99;98224.56;4937294;29;20049;-78
2023/06/16 01:49:54;;;;;;;6.60;3.28;;;;;;;23.65;53.02;98220.47;4937181;29;20024;-78
2023/06/16 01:52:20;;;;;;;3.60;2.70;;;;;;;23.59;52.93;98224.00;4937085;29;20102;-78
2023/06/16 01:54:46;;;;;;;4.97;2.85;;;;;;;23.59;53.23;98227.47;4952975;29;20054;-78
2023/06/16 01:57:11;;;;;;;4.70;2.70;;;;;;;23.57;53.17;98228.72;4953290;28;20109;-78
2023/06/16 01:59:37;;;;;;;6.82;3.20;;;;;;;23.53;53.40;98228.34;4953073;29;20117;-79
2023/06/16 02:02:12;;;;;;;10.18;5.53;;;;;;;23.49;53.45;98219.94;4953124;29;20038;-78
2023/06/16 02:04:38;;;;;;;11.88;8.23;;;;;;;23.49;53.84;98224.47;4922276;29;20458;-78
2023/06/16 02:07:10;;;;;;;15.98;11.15;;;;;;;23.43;54.08;98218.13;4937328;29;20114;-78
2023/06/16 02:09:36;;;;;;;16.70;12.07;;;;;;;23.45;53.90;98217.91;4921894;29;20027;-79
2023/06/16 02:12:02;;;;;;;18.20;12.25;;;;;;;23.40;53.98;98204.44;4952933;29;20059;-78
2023/06/16 02:14:28;;;;;;;17.15;11.43;;;;;;;23.36;54.05;98209.38;4937108;29;20063;-78
2023/06/16 02:16:54;;;;;;;15.25;12.05;;;;;;;23.36;53.99;98216.56;4952949;29;20038;-78
2023/06/16 02:19:19;;;;;;;14.32;10.70;;;;;;;23.34;54.38;98211.44;4954259;28;20039;-78
2023/06/16 02:21:45;;;;;;;11.57;8.93;;;;;;;23.31;54.08;98211.84;4952890;29;20046;-78
2023/06/16 02:24:10;;;;;;;10.77;7.70;;;;;;;23.25;54.38;98218.84;4952803;29;20118;-78
2023/06/16 02:26:37;;;;;;;10.65;6.35;;;;;;;23.28;54.24;98217.59;4936856;29;20027;-79
2023/06/16 02:29:02;;;;;;;8.13;5.70;;;;;;;23.25;54.27;98216.16;4952630;29;20055;-78
2023/06/16 02:31:28;;;;;;;7.20;5.40;;;;;;;23.19;54.16;98214.34;4953944;28;20027;-78
2023/06/16 02:33:54;;;;;;;6.20;4.78;;;;;;;23.18;54.24;98219.88;4952684;29;20098;-79
2023/06/16 02:36:20;;;;;;;7.35;4.18;;;;;;;23.19;54.24;98224.19;4936687;29;20119;-79
2023/06/16 02:38:45;;;;;;;6.68;3.97;;;;;;;23.17;54.56;98213.75;4952895;29;20047;-79
2023/06/16 02:41:12;;;;;;;6.22;3.30;;;;;;;23.14;54.22;98216.84;4951822;29;20053;-78
2023/06/16 02:43:38;;;;;;;7.55;3.58;;;;;;;23.05;54.64;98205.56;4952731;28;20023;-78
2023/06/16 02:46:04;;;;;;;5.32;3.20;;;;;;;23.08;54.52;98210.50;4955917;29;20403;-78
2023/06/16 02:48:29;;;;;;;4.30;3.22;;;;;;;23.05;54.23;98202.91;4956266;29;20035;-78
2023/06/16 02:50:55;;;;;;;5.22;2.70;;;;;;;23.06;54.44;98212.53;4957682;28;20074;-78
2023/06/16 02:53:21;;;;;;;5.75;3.03;;;;;;;23.02;54.42;98200.66;4956200;29;20027;-78
2023/06/16 02:55:47;;;;;;;8.63;5.22;;;;;;;23.04;54.74;98203.13;4956302;28;20075;-78
2023/06/16 02:58:13;;;;;;;11.00;8.48;;;;;;;23.04;54.77;98211.09;4924712;29;20051;-78
2023/06/16 03:00:38;;;;;;;16.85;9.75;;;;;;;23.04;54.50;98203.94;4956236;29;20035;-78
2023/06/16 03:03:07;;;;;;;15.15;10.15;;;;;;;23.02;54.64;98198.00;4956129;29;20394;-79
2023/06/16 03:05:33;;;;;;;13.88;10.23;;;;;;;23.00;54.46;98186.75;4957162;28;20114;-78
2023/06/16 03:07:59;;;;;;;16.90;11.23;;;;;;;22.99;54.55;98195.75;4956642;29;20533;-78
2023/06/16 03:10:24;;;;;;;13.90;10.20;;;;;;;22.98;54.31;98194.13;4956184;28;20031;-79
2023/06/16 03:12:50;;;;;;;11.93;9.13;;;;;;;22.93;54.49;98197.44;4956943;28;20027;-80
2023/06/16 03:15:15;;;;;;;10.25;7.80;;;;;;;22.89;54.46;98182.91;4956023;29;20403;-78
2023/06/16 03:17:42;;;;;;;10.15;7.15;;;;;;;22.94;54.52;98187.59;4957222;28;20055;-80
2023/06/16 03:20:08;;;;;;;7.78;5.78;;;;;;;22.96;54.42;98193.50;4956999;28;20130;-76
2023/06/16 03:22:34;;;;;;;6.07;2.83;;;;;;;23.33;57.23;98185.81;4956957;28;20530;-76
2023/06/16 03:25:02;;;;;;;16.48;3.65;;;;;;;23.69;55.33;98187.06;4955495;29;20101;-74
2023/06/16 03:27:31;;;;;;;4.68;2.78;;;;;;;24.02;54.27;98189.50;4955436;29;20031;-75
2023/06/16 03:29:57;;;;;;;11.05;2.65;;;;;;;24.22;53.26;98183.19;4957141;28;20035;-75
2023/06/16 03:32:22;;;;;;;9.15;3.15;;;;;;;24.39;52.43;98183.44;4938820;29;20047;-75
2023/06/16 03:34:48;;;;;;;9.13;3.20;;;;;;;24.50;51.60;98180.03;4955408;29;20031;-75
2023/06/16 03:37:14;;;;;;;8.07;2.70;;;;;;;24.62;51.08;98174.84;4955275;29;20035;-75
2023/06/16 03:39:40;;;;;;;4.18;2.55;;;;;;;24.76;50.75;98182.69;4937479;29;20239;-71
2023/06/16 03:42:06;;;;;;;7.78;2.50;;;;;;;24.86;51.36;98193.63;4956138;28;20023;-76
2023/06/16 03:44:31;;;;;;;6.20;2.85;;;;;;;24.87;51.41;98181.94;4938924;29;20031;-75
2023/06/16 03:46:57;;;;;;;7.10;2.50;;;;;;;24.96;51.01;98188.59;4939524;29;20023;-76
2023/06/16 03:49:22;;;;;;;7.07;2.47;;;;;;;25.03;50.95;98188.53;4955077;28;20510;-75
2023/06/16 03:51:48;;;;;;;5.20;2.47;;;;;;;25.17;51.35;98181.16;4938942;29;20073;-75
2023/06/16 03:54:14;;;;;;;4.60;2.70;;;;;;;25.25;51.49;98178.19;4956031;28;20134;-76
2023/06/16 03:56:40;;;;;;;9.10;2.75;;;;;;;25.39;51.24;98186.88;4953594;28;20048;-75
2023/06/16 03:59:05;;;;;;;4.15;2.42;;;;;;;25.44;50.83;98185.16;4938417;29;20043;-71
2023/06/16 04:01:31;;;;;;;3.65;2.15;;;;;;;25.49;50.43;98191.66;4954478;29;20035;-71
2023/06/16 04:03:57;;;;;;;5.15;2.28;;;;;;;25.54;50.39;98194.47;4954643;29;20388;-71
2023/06/16 04:06:23;;;;;;;3.65;2.20;;;;;;;25.59;49.88;98194.63;4953384;29;20097;-72
2023/06/16 04:08:49;;;;;;;4.13;2.53;;;;;;;25.66;49.77;98197.19;4937433;29;20039;-72
2023/06/16 04:11:15;;;;;;;4.13;2.00;;;;;;;25.77;49.04;98202.56;4922743;29;20479;-72
2023/06/16 04:13:41;;;;;;;3.63;2.20;;;;;;;26.27;48.12;98201.41;4955770;28;20557;-72
2023/06/16 04:16:06;;;;;;;5.22;2.22;;;;;;;27.05;46.10;98195.88;4938757;29;20027;-72
2023/06/16 04:18:32;;;;;;;4.60;2.33;;;;;;;27.62;44.37;98189.72;4938558;29;20031;-72
2023/06/16 04:20:57;;;;;;;3.53;2.03;;;;;;;27.47;44.53;98194.81;4954439;29;20044;-72
2023/06/16 04:23:23;;;;;;;3.30;2.05;;;;;;;27.39;44.79;98190.63;4954158;29;20106;-71
2023/06/16 04:25:48;;;;;;;3.35;2.03;;;;;;;27.22;44.88;98185.22;4955394;28;20102;-71
2023/06/16 04:28:14;;;;;;;3.78;2.08;;;;;;;27.16;44.92;98188.84;4938225;29;20082;-72
2023/06/16 04:30:43;;;;;;;6.20;2.55;;;;;;;27.13;45.27;98194.69;4938162;29;20071;-72
2023/06/16 04:33:09;;;;;;;2.78;1.98;;;;;;;27.11;45.15;98192.25;4922582;29;20485;-72
2023/06/16 04:35:34;;;;;;;3.10;1.80;;;;;;;27.14;45.02;98196.31;4954337;29;20062;-71
2023/06/16 04:38:03;;;;;;;5.78;2.10;;;;;;;27.17;44.76;98185.94;4954131;29;20046;-72
2023/06/16 04:40:29;;;;;;;6.35;2.10;;;;;;;27.31;44.67;98191.03;4954052;29;20032;-71
2023/06/16 04:42:55;;;;;;;2.65;1.85;;;;;;;28.55;42.04;98199.28;4938581;29;20089;-71
2023/06/16 04:45:21;;;;;;;3.03;2.30;;;;;;;29.20;40.47;98186.97;4954169;28;20468;-72
2023/06/16 04:47:46;;;;;;;7.43;6.18;;;;;;;28.75;41.18;98191.53;4937922;29;20051;-71
2023/06/16 04:50:12;;;;;;;9.98;6.93;;;;;;;28.65;41.29;98197.53;4953866;29;20031;-72
2023/06/16 04:52:38;;;;;;;7.93;5.78;;;;;;;28.61;41.32;98182.19;4937731;29;20039;-71
2023/06/16 04:55:04;;;;;;;10.48;7.00;;;;;;;28.55;41.50;98186.66;4955214;28;20047;-71
2023/06/16 04:57:31;;;;;;;8.75;7.35;;;;;;;28.42;41.49;98187.81;4953912;29;20027;-71
2023/06/16 04:59:57;;;;;;;8.68;7.53;;;;;;;28.38;41.65;98184.00;4953998;29;20519;-72
2023/06/16 05:02:23;;;;;;;8.07;7.00;;;;;;;28.41;41.64;98190.75;4938092;29;20042;-72
2023/06/16 05:04:48;;;;;;;8.30;7.30;;;;;;;28.51;41.57;98189.03;4953824;28;20043;-72
2023/06/16 05:07:14;;;;;;;10.70;6.65;;;;;;;28.51;41.29;98189.03;4937259;29;20399;-73
2023/06/16 05:09:39;;;;;;;8.50;6.50;;;;;;;28.59;41.04;98192.34;4953604;29;20069;-71
2023/06/16 05:12:08;;;;;;;7.13;5.60;;;;;;;28.86;40.35;98192.44;4953825;29;20487;-72
2023/06/16 05:14:34;;;;;;;7.15;5.30;;;;;;;28.91;40.16;98189.84;4937928;29;20086;-73
2023/06/16 05:17:00;;;;;;;5.93;5.18;;;;;;;28.77;40.49;98186.69;4938001;29;20069;-72
2023/06/16 05:19:26;;;;;;;5.85;4.90;;;;;;;28.67;40.70;98189.25;4937431;29;20047;-73
2023/06/16 05:21:51;;;;;;;6.72;4.68;;;;;;;28.53;41.10;98186.09;4953268;29;20031;-72
2023/06/16 05:24:17;;;;;;;6.72;4.30;;;;;;;28.43;41.15;98184.09;4953478;29;20111;-72
2023/06/16 05:26:42;;;;;;;8.15;4.20;;;;;;;28.33;41.52;98186.59;4953594;29;20031;-72
2023/06/16 05:29:08;;;;;;;5.13;3.90;;;;;;;28.19;41.60;98180.75;4937160;29;20047;-72
2023/06/16 05:31:35;;;;;;;5.72;3.80;;;;;;;28.12;41.76;98180.94;4953411;29;20529;-73
2023/06/16 05:34:01;;;;;;;5.35;3.67;;;;;;;28.22;41.41;98184.84;4937700;29;20054;-71
2023/06/16 05:36:29;;;;;;;5.38;3.33;;;;;;;28.67;40.40;98186.56;4937744;29;20038;-73
2023/06/16 05:38:54;;;;;;;4.30;2.90;;;;;;;30.37;37.04;98186.41;4937603;29;20098;-72
2023/06/16 05:41:23;;;;;;;4.03;3.03;;;;;;;30.24;37.28;98187.66;4937662;29;20042;-71
2023/06/16 05:43:51;;;;;;;4.72;2.50;;;;;;;30.15;37.15;98193.78;4953313;29;20090;-72
2023/06/16 05:46:16;;;;;;;4.55;2.88;;;;;;;30.32;36.68;98191.75;4953257;28;20065;-74
2023/06/16 05:48:42;;;;;;;8.57;6.40;;;;;;;30.22;36.66;98187.13;4921737;29;20047;-72
2023/06/16 05:51:07;;;;;;;8.95;5.38;;;;;;;30.16;37.30;98187.31;4937062;29;20487;-73
2023/06/16 05:53:33;;;;;;;9.32;6.93;;;;;;;30.64;36.07;98182.81;4921320;29;20059;-72
2023/06/16 05:55:58;;;;;;;9.65;7.10;;;;;;;31.37;34.57;98182.84;4937317;29;20046;-72
2023/06/16 05:58:24;;;;;;;8.90;5.80;;;;;;;31.81;33.03;98178.06;4953131;29;20067;-72
2023/06/16 06:00:49;;;;;;;7.00;5.57;;;;;;;32.90;31.43;98184.94;4953234;29;20023;-72
2023/06/16 06:03:15;;;;;;;7.25;5.22;;;;;;;33.63;30.46;98175.34;4936980;29;20047;-73
2023/06/16 06:05:40;;;;;;;8.43;4.22;;;;;;;33.88;29.29;98183.31;4937177;29;20426;-72
2023/06/16 06:08:07;;;;;;;7.57;5.45;;;;;;;34.93;27.93;98179.28;4937820;29;20530;-71
2023/06/16 06:10:32;;;;;;;6.80;5.22;;;;;;;35.95;26.15;98184.41;4936858;29;20067;-72
2023/06/16 06:13:02;;;;;;;5.65;4.72;;;;;;;36.78;25.72;98186.44;4921607;29;20093;-73
2023/06/16 06:15:27;;;;;;;5.60;4.80;;;;;;;37.43;25.14;98179.88;4937172;29;20074;-72
2023/06/16 06:17:53;;;;;;;8.88;4.78;;;;;;;37.61;24.81;98181.66;4954377;28;20058;-72
2023/06/16 06:20:18;;;;;;;6.97;3.60;;;;;;;38.29;23.37;98181.63;4956516;28;20039;-72
2023/06/16 06:22:44;;;;;;;4.80;4.00;;;;;;;38.73;23.25;98190.81;4957969;28;20039;-71
2023/06/16 06:25:10;;;;;;;4.72;4.05;;;;;;;39.31;22.61;98188.03;4956854;28;20034;-72
2023/06/16 06:27:35;;;;;;;8.57;4.13;;;;;;;39.73;21.81;98180.19;4956796;29;20047;-72
2023/06/16 06:30:01;;;;;;;5.45;4.32;;;;;;;40.12;21.77;98178.38;4956741;29;20034;-73
2023/06/16 06:32:26;;;;;;;5.45;3.90;;;;;;;40.36;21.24;98171.53;4956777;29;20139;-71
2023/06/16 06:34:52;;;;;;;5.78;2.60;;;;;;;40.23;20.09;98173.34;4956965;29;20031;-72
2023/06/16 06:37:18;;;;;;;5.20;3.55;;;;;;;40.40;21.21;98174.41;4956992;28;20147;-71
2023/06/16 06:39:45;;;;;;;5.55;3.35;;;;;;;40.51;21.32;98168.25;4940802;29;20030;-73
2023/06/16 06:42:12;;;;;;;4.15;2.92;;;;;;;40.58;21.28;98169.69;4940793;29;20043;-71
2023/06/16 06:44:37;;;;;;;6.22;3.05;;;;;;;40.60;21.31;98167.44;4957750;28;20397;-73
2023/06/16 06:47:03;;;;;;;5.88;3.10;;;;;;;40.41;21.40;98165.91;4940480;29;20035;-72
2023/06/16 06:49:29;;;;;;;3.90;2.80;;;;;;;40.30;21.58;98161.91;4956317;29;20106;-72
2023/06/16 06:51:54;;;;;;;4.40;2.83;;;;;;;40.22;21.64;98165.47;4940421;29;20043;-72
2023/06/16 06:54:20;;;;;;;5.72;2.55;;;;;;;40.25;21.08;98167.53;4957395;28;20151;-72
2023/06/16 06:56:45;;;;;;;3.33;2.50;;;;;;;40.25;21.52;98159.34;4956480;29;20406;-72
2023/06/16 06:59:11;;;;;;;6.18;2.55;;;;;;;40.39;21.22;98162.69;4957456;28;20402;-71
2023/06/16 07:01:36;;;;;;;3.80;2.40;;;;;;;40.53;21.27;98158.94;4955983;29;20147;-71
2023/06/16 07:04:02;;;;;;;3.72;2.45;;;;;;;40.64;21.03;98163.72;4956738;29;20039;-71
2023/06/16 07:06:27;;;;;;;5.20;2.35;;;;;;;40.64;21.23;98158.25;4957398;28;20062;-73
2023/06/16 07:08:53;;;;;;;2.90;2.10;;;;;;;39.96;21.61;98152.66;4956222;29;20035;-72
2023/06/16 07:11:18;;;;;;;4.03;1.70;;;;;;;39.65;21.14;98150.16;4956946;28;20023;-72
2023/06/16 07:13:44;;;;;;;5.45;2.30;;;;;;;39.40;22.22;98152.56;4955916;29;20032;-72
2023/06/16 07:16:09;;;;;;;4.03;1.98;;;;;;;39.14;22.71;98147.09;4957094;28;20137;-74
2023/06/16 07:18:36;;;;;;;3.63;2.00;;;;;;;38.47;23.37;98151.72;4955680;29;20027;-72
2023/06/16 07:21:02;;;;;;;5.35;1.77;;;;;;;37.88;23.15;98139.09;4940382;29;20028;-72
2023/06/16 07:23:27;;;;;;;3.28;1.70;;;;;;;37.42;22.61;98132.03;4957242;28;20155;-73
2023/06/16 07:25:54;;;;;;;4.80;2.10;;;;;;;37.29;24.75;98142.66;4956070;29;20035;-73
2023/06/16 07:28:19;;;;;;;5.13;1.90;;;;;;;36.88;25.23;98140.81;4956138;29;20071;-72
2023/06/16 07:30:45;;;;;;;3.92;1.83;;;;;;;37.47;24.66;98140.84;4923620;29;20035;-73
2023/06/16 07:33:10;;;;;;;5.07;1.90;;;;;;;37.72;24.56;98144.13;4939783;29;20497;-71
2023/06/16 07:35:36;;;;;;;2.60;1.50;;;;;;;37.59;23.44;98145.75;4923969;29;20086;-72
2023/06/16 07:38:01;;;;;;;3.05;1.70;;;;;;;38.06;23.44;98159.03;4939731;29;20035;-72
2023/06/16 07:40:27;;;;;;;4.07;1.60;;;;;;;37.75;22.97;98146.22;4955775;28;20467;-72
2023/06/16 07:42:52;;;;;;;5.47;1.70;;;;;;;37.55;23.66;98155.66;4923823;29;20043;-72
2023/06/16 07:45:18;;;;;;;8.38;1.42;;;;;;;37.56;23.85;98156.44;4957109;28;20042;-73
2023/06/16 07:47:45;;;;;;;3.30;1.40;;;;;;;37.19;22.91;98152.94;4923734;29;20042;-72
2023/06/16 07:50:12;;;;;;;;;;;;;;;36.78;23.76;98159.25;4925069;29;20125;-72
2023/06/16 07:52:38;;;;;;;2.92;1.50;;;;;;;36.08;24.05;98155.66;4955244;29;19973;-73
2023/06/16 07:55:04;;;;;;;4.75;1.73;;;;;;;35.67;25.90;98166.06;4923484;29;20055;-72
2023/06/16 07:57:29;;;;;;;3.90;1.60;;;;;;;35.37;25.38;98172.75;4923532;29;20035;-72
2023/06/16 07:59:55;;;;;;;3.53;1.50;;;;;;;35.19;25.20;98168.09;4939284;29;20371;-73
2023/06/16 08:02:21;;;;;;;3.75;1.63;;;;;;;34.89;25.21;98170.16;4938899;29;20077;-72
2023/06/16 08:04:46;;;;;;;10.77;1.73;;;;;;;34.50;25.32;98176.53;4939059;29;20035;-73
2023/06/16 08:07:12;;;;;;;6.07;1.40;;;;;;;34.86;24.93;98163.38;4923143;29;20415;-73
2023/06/16 08:09:37;;;;;;;6.65;1.67;;;;;;;35.10;24.38;98166.06;4938893;29;20027;-72
2023/06/16 08:12:04;;;;;;;4.65;1.70;;;;;;;35.14;25.03;98169.00;4939082;29;20109;-72
2023/06/16 08:14:30;;;;;;;4.82;1.65;;;;;;;35.24;26.28;98168.06;4939188;29;20031;-73
2023/06/16 08:16:56;;;;;;;3.47;1.52;;;;;;;35.65;24.84;98172.91;4938939;29;20035;-76
2023/06/16 08:19:21;;;;;;;4.80;1.45;;;;;;;35.24;25.86;98165.34;4923031;29;20403;-71
2023/06/16 08:21:47;;;;;;;4.78;1.70;;;;;;;35.06;26.40;98172.34;4954615;29;20034;-72
2023/06/16 08:24:12;;;;;;;4.25;1.70;;;;;;;34.68;26.68;98177.66;4954651;29;20384;-72
2023/06/16 08:26:38;;;;;;;4.80;2.10;;;;;;;34.59;26.82;98163.97;4955952;28;20038;-72
2023/06/16 08:29:04;;;;;;;6.65;2.00;;;;;;;34.81;26.99;98171.59;4954624;29;20467;-72
2023/06/16 08:31:29;;;;;;;5.88;1.90;;;;;;;34.66;26.64;98171.75;4954214;29;20475;-72
2023/06/16 08:33:55;;;;;;;5.90;2.53;;;;;;;34.59;26.73;98174.81;4922668;29;20094;-72
2023/06/16 08:36:23;;;;;;;6.45;1.95;;;;;;;34.29;27.14;98167.81;4954478;28;20059;-72
2023/06/16 08:38:48;;;;;;;8.13;2.20;;;;;;;34.04;27.63;98164.22;4954584;29;20038;-72
2023/06/16 08:41:16;;;;;;;6.32;2.30;;;;;;;33.83;27.57;98175.22;4954158;29;20031;-72
2023/06/16 08:43:41;;;;;;;7.07;2.25;;;;;;;33.67;28.21;98160.97;4937948;29;20050;-73
2023/06/16 08:46:10;;;;;;;5.55;2.20;;;;;;;33.48;28.44;98163.56;4938726;29;20039;-72
2023/06/16 08:48:36;;;;;;;8.10;2.53;;;;;;;33.47;28.76;98167.34;4939409;29;20039;-73
2023/06/16 08:51:02;;;;;;;5.90;2.20;;;;;;;33.87;28.12;98161.94;4938465;29;20057;-73
2023/06/16 08:53:31;;;;;;;4.90;2.03;;;;;;;33.92;28.67;98166.50;4953952;29;20047;-72
2023/06/16 08:55:57;;;;;;;6.88;2.10;;;;;;;34.10;28.63;98162.28;4954238;29;20039;-72
2023/06/16 08:58:22;;;;;;;7.10;2.20;;;;;;;34.26;28.12;98161.06;4938071;29;20035;-72
2023/06/16 09:00:50;;;;;;;4.85;2.10;;;;;;;34.29;28.26;98171.31;4938037;29;20035;-75
2023/06/16 09:03:17;;;;;;;4.75;1.92;;;;;;;34.18;28.83;98153.53;4953740;29;20099;-72
2023/06/16 09:05:42;;;;;;;6.72;2.65;;;;;;;34.46;28.39;98162.75;4953977;29;20031;-71
2023/06/16 09:08:08;;;;;;;4.68;2.10;;;;;;;34.33;27.90;98150.72;4953846;28;20105;-71
2023/06/16 09:10:34;;;;;;;6.22;2.60;;;;;;;34.13;28.25;98153.56;4937762;29;20117;-71
2023/06/16 09:13:00;;;;;;;10.10;2.65;;;;;;;34.20;28.44;98152.13;4953794;29;20047;-72
2023/06/16 09:15:25;;;;;;;5.55;2.83;;;;;;;33.94;28.73;98143.47;4937943;29;20038;-72
2023/06/16 09:17:52;;;;;;;7.60;2.22;;;;;;;33.70;29.55;98146.09;4937884;29;20047;-72
2023/06/16 09:20:18;;;;;;;6.10;2.70;;;;;;;33.50;29.54;98147.84;4937745;29;20043;-73
2023/06/16 09:23:00;;;;;;;4.95;2.33;;;;;;;33.20;30.25;98145.34;4937473;29;20039;-72
2023/06/16 09:25:26;;;;;;;7.70;2.92;;;;;;;33.01;30.36;98154.06;4953743;29;20110;-71
2023/06/16 09:27:53;;;;;;;5.45;2.80;;;;;;;32.77;30.85;98159.31;4953703;29;20085;-71
2023/06/16 09:30:20;;;;;;;8.70;3.07;;;;;;;32.53;30.93;98151.00;4953668;29;20027;-72
2023/06/16 09:32:46;;;;;;;5.35;2.95;;;;;;;32.30;31.21;98165.91;4954695;28;20398;-73
2023/06/16 09:35:22;;;;;;;7.63;3.13;;;;;;;32.06;31.76;98163.75;4921863;29;20039;-72
2023/06/16 09:37:55;;;;;;;5.95;3.10;;;;;;;31.81;32.04;98165.38;4922038;29;20113;-73
2023/06/16 09:40:28;;;;;;;6.25;3.20;;;;;;;31.53;32.76;98154.06;4938192;29;20039;-72
2023/06/16 09:42:56;;;;;;;4.43;2.50;;;;;;;31.31;33.42;98162.34;4936926;29;20131;-73
2023/06/16 09:45:22;;;;;;;6.05;2.85;;;;;;;31.10;34.15;98158.78;4921788;29;20459;-74
2023/06/16 09:47:48;;;;;;;6.85;3.30;;;;;;;30.90;34.29;98166.75;4921674;29;20113;-71
2023/06/16 09:50:15;;;;;;;6.28;3.53;;;;;;;30.67;35.23;98164.25;4936980;29;20039;-72
2023/06/16 09:52:42;;;;;;;5.88;3.47;;;;;;;30.52;35.13;98157.97;4936817;29;20039;-73
2023/06/16 09:55:08;;;;;;;7.27;3.73;;;;;;;30.31;35.88;98153.28;4937024;29;20093;-72
2023/06/16 09:57:33;;;;;;;5.15;3.40;;;;;;;30.16;36.62;98166.63;4937283;29;20463;-73
2023/06/16 09:59:59;;;;;;;6.03;3.50;;;;;;;30.01;37.04;98163.81;4921193;29;20088;-72
2023/06/16 10:02:24;;;;;;;6.82;3.60;;;;;;;29.83;37.48;98160.44;4937110;29;20054;-71
2023/06/16 10:04:54;;;;;;;6.80;3.85;;;;;;;29.59;37.76;98152.69;4953019;28;20115;-72
2023/06/16 10:07:20;;;;;;;6.28;3.55;;;;;;;29.54;37.85;98160.72;4936831;29;20039;-72
2023/06/16 10:09:48;;;;;;;7.05;3.80;;;;;;;29.41;38.36;98158.44;4937138;29;20105;-73
2023/06/16 10:12:13;;;;;;;7.80;4.05;;;;;;;29.28;38.63;98162.34;4936944;29;20066;-71
2023/06/16 10:14:39;;;;;;;5.88;4.05;;;;;;;29.19;39.12;98169.22;4921342;29;20039;-72
2023/06/16 10:17:05;;;;;;;6.53;4.00;;;;;;;29.06;39.75;98162.34;4920863;29;20403;-72
2023/06/16 10:19:30;;;;;;;12.88;4.20;;;;;;;29.00;39.65;98166.84;4952985;29;20073;-72
2023/06/16 10:21:56;;;;;;;7.75;4.00;;;;;;;29.00;40.12;98158.78;4936453;29;20066;-69
2023/06/16 10:24:21;;;;;;;8.88;4.40;;;;;;;29.09;40.17;98148.41;4921091;29;20043;-70
2023/06/16 10:26:48;;;;;;;7.65;3.83;;;;;;;29.21;40.16;98151.00;4936849;29;20110;-72
2023/06/16 10:29:16;;;;;;;7.07;4.00;;;;;;;29.40;39.36;98148.75;4937140;29;20027;-73
2023/06/16 10:31:45;;;;;;;6.38;4.00;;;;;;;29.50;39.28;98140.78;4952596;29;20113;-73
2023/06/16 10:34:21;;;;;;;8.30;3.97;;;;;;;29.69;39.07;98149.28;4920884;29;20118;-74
2023/06/16 10:36:48;;;;;;;8.55;3.80;;;;;;;29.91;38.74;98141.13;4921448;29;20129;-74
2023/06/16 10:39:16;;;;;;;5.93;3.90;;;;;;;30.12;38.86;98133.22;4920788;29;20062;-74
2023/06/16 10:42:07;;;;;;;;;;;;;;;30.34;38.48;98126.88;4937506;29;20035;-73
2023/06/16 10:44:33;;;;;;;7.85;3.83;;;;;;;30.49;38.78;98124.31;4952762;28;19910;-73
2023/06/16 10:47:07;;;;;;;7.18;3.83;;;;;;;30.59;38.58;98121.66;4936574;29;20143;-72
2023/06/16 10:49:50;;;;;;;5.70;3.50;;;;;;;30.69;38.65;98112.81;4952849;28;20035;-70
2023/06/16 10:52:45;;;;;;;6.28;4.13;;;;;;;30.79;38.70;98112.84;4953875;28;20054;-69
2023/06/16 10:55:17;;;;;;;7.80;4.25;;;;;;;30.85;37.81;98095.63;4952502;29;20185;-72
2023/06/16 10:57:43;;;;;;;6.88;3.92;;;;;;;30.92;38.15;98095.38;4953746;28;20019;-72
2023/06/16 11:00:14;;;;;;;9.25;4.78;;;;;;;31.00;37.63;98091.38;4920769;29;20078;-71
2023/06/16 11:02:54;;;;;;;5.70;4.25;;;;;;;31.01;36.81;98082.19;4921631;29;20094;-72
2023/06/16 11:05:22;;;;;;;11.15;3.45;;;;;;;31.08;36.60;98080.06;4937069;29;20446;-77
2023/06/16 11:07:58;;;;;;;8.30;3.15;;;;;;;31.12;36.24;98069.56;4940664;29;20027;-78
2023/06/16 11:10:24;;;;;;;9.27;4.50;;;;;;;31.10;36.73;98064.44;4955971;28;20035;-77
2023/06/16 11:12:50;;;;;;;7.50;3.97;;;;;;;31.06;36.52;98054.47;4940411;29;20035;-78
2023/06/16 11:15:16;;;;;;;6.70;3.60;;;;;;;31.01;36.43;98052.56;4956131;28;20031;-77
2023/06/16 11:17:43;;;;;;;12.45;4.10;;;;;;;31.03;36.70;98053.91;4939989;29;20042;-79
2023/06/16 11:20:12;;;;;;;10.32;3.75;;;;;;;31.02;35.82;98046.91;4939880;29;20038;-81
2023/06/16 11:22:37;;;;;;;9.10;3.50;;;;;;;30.98;35.85;98042.31;4940139;29;20419;-80
2023/06/16 11:25:03;;;;;;;7.57;2.50;;;;;;;30.91;35.44;98039.84;4923968;29;20050;-77
2023/06/16 11:27:30;;;;;;;10.07;2.65;;;;;;;30.87;35.05;98046.03;4924002;29;20038;-80
2023/06/16 11:29:56;;;;;;;5.25;2.22;;;;;;;30.77;34.98;98039.56;4955731;29;20478;-79